createdAt,value
2023-05-06T00:00:07.021Z,9.00
2023-05-06T00:02:36.734Z,9.00
2023-05-06T00:05:05.501Z,8.90
2023-05-06T00:07:35.873Z,9.00
2023-05-06T00:10:04.547Z,9.00
2023-05-06T00:12:33.279Z,8.90
2023-05-06T00:15:01.811Z,9.00
2023-05-06T00:17:30.646Z,8.90
2023-05-06T00:19:59.289Z,9.00
2023-05-06T00:22:27.760Z,9.00
2023-05-06T00:24:57.682Z,8.90
2023-05-06T00:27:26.221Z,8.90
2023-05-06T00:29:54.659Z,8.90
2023-05-06T00:32:23.282Z,8.90
2023-05-06T00:34:52.200Z,8.90
2023-05-06T00:37:20.629Z,8.90
2023-05-06T00:39:49.192Z,8.90
2023-05-06T00:42:19.114Z,9.00
2023-05-06T00:44:47.595Z,9.00
2023-05-06T00:47:16.650Z,9.00
2023-05-06T00:49:46.116Z,9.10
2023-05-06T00:52:14.962Z,9.00
2023-05-06T00:54:43.736Z,9.00
2023-05-06T00:57:12.261Z,9.10
2023-05-06T00:59:42.227Z,9.10
2023-05-06T01:02:10.819Z,9.20
2023-05-06T01:04:41.631Z,9.20
2023-05-06T01:07:20.351Z,9.20
2023-05-06T01:09:57.019Z,9.20
2023-05-06T01:12:34.413Z,9.10
2023-05-06T01:15:12.865Z,9.10
2023-05-06T01:17:45.660Z,9.00
2023-05-06T01:20:15.544Z,9.00
2023-05-06T01:22:44.463Z,8.90
2023-05-06T01:25:21.668Z,9.00
2023-05-06T01:27:50.375Z,9.00
2023-05-06T01:30:22.085Z,9.00
2023-05-06T01:33:01.102Z,9.10
2023-05-06T01:35:37.149Z,9.00
2023-05-06T01:38:17.262Z,9.10
2023-05-06T01:40:54.618Z,9.10
2023-05-06T01:43:26.199Z,9.20
2023-05-06T01:45:57.303Z,9.20
2023-05-06T01:48:27.764Z,9.20
2023-05-06T01:50:56.580Z,9.20
2023-05-06T01:53:25.258Z,9.30
2023-05-06T01:55:55.137Z,9.30
2023-05-06T01:58:23.680Z,9.30
2023-05-06T02:00:52.219Z,9.30
2023-05-06T02:03:20.818Z,9.30
2023-05-06T02:05:49.594Z,9.40
2023-05-06T02:08:18.142Z,9.40
2023-05-06T02:10:46.607Z,9.30
2023-05-06T02:13:16.529Z,9.30
2023-05-06T02:15:45.133Z,9.30
2023-05-06T02:18:13.772Z,9.30
2023-05-06T02:20:42.257Z,9.30
2023-05-06T02:23:10.849Z,9.30
2023-05-06T02:25:39.367Z,9.30
2023-05-06T02:28:07.834Z,9.40
2023-05-06T02:30:38.250Z,9.30
2023-05-06T02:33:06.868Z,9.30
2023-05-06T02:35:35.814Z,9.40
2023-05-06T02:38:04.482Z,9.40
2023-05-06T02:40:32.966Z,9.50
2023-05-06T02:43:01.623Z,9.50
2023-05-06T02:45:30.193Z,9.50
2023-05-06T02:48:00.213Z,9.50
2023-05-06T02:50:28.753Z,9.50
2023-05-06T02:52:57.244Z,9.40
2023-05-06T02:55:25.819Z,9.50
2023-05-06T02:57:54.298Z,9.40
2023-05-06T03:00:22.497Z,9.40
2023-05-06T03:02:51.016Z,9.40
2023-05-06T03:05:21.277Z,9.40
2023-05-06T03:07:49.825Z,9.40
2023-05-06T03:10:18.445Z,9.30
2023-05-06T03:12:46.944Z,9.40
2023-05-06T03:15:15.502Z,9.30
2023-05-06T03:17:44.909Z,9.40
2023-05-06T03:20:13.784Z,9.40
2023-05-06T03:22:43.783Z,9.40
2023-05-06T03:25:12.569Z,9.40
2023-05-06T03:27:41.174Z,9.30
2023-05-06T03:30:11.293Z,9.30
2023-05-06T03:32:44.393Z,9.30
2023-05-06T03:35:13.130Z,9.30
2023-05-06T03:37:41.814Z,9.20
2023-05-06T03:40:12.353Z,9.30
2023-05-06T03:42:40.925Z,9.30
2023-05-06T03:45:10.262Z,9.20
2023-05-06T03:47:39.483Z,9.30
2023-05-06T03:50:08.934Z,9.30
2023-05-06T03:52:37.485Z,9.30
2023-05-06T03:55:06.634Z,9.20
2023-05-06T03:57:37.213Z,9.20
2023-05-06T04:00:06.769Z,9.20
2023-05-06T04:02:37.250Z,9.20
2023-05-06T04:05:06.367Z,9.20
2023-05-06T04:07:34.808Z,9.20
2023-05-06T04:10:03.366Z,9.20
2023-05-06T04:12:31.970Z,9.20
2023-05-06T04:15:01.904Z,9.20
2023-05-06T04:17:30.395Z,9.20
2023-05-06T04:19:58.877Z,9.20
2023-05-06T04:22:27.359Z,9.20
2023-05-06T04:24:55.871Z,9.20
2023-05-06T04:27:28.200Z,9.10
2023-05-06T04:29:56.952Z,9.00
2023-05-06T04:32:26.982Z,9.10
2023-05-06T04:34:56.274Z,9.00
2023-05-06T04:37:24.893Z,9.00
2023-05-06T04:39:54.563Z,9.10
2023-05-06T04:42:23.108Z,9.00
2023-05-06T04:44:51.653Z,9.10
2023-05-06T04:47:20.128Z,9.10
2023-05-06T04:49:49.998Z,9.00
2023-05-06T04:52:18.540Z,9.10
2023-05-06T04:54:47.077Z,9.10
2023-05-06T04:57:15.587Z,9.10
2023-05-06T04:59:44.068Z,9.10
2023-05-06T05:02:12.556Z,9.10
2023-05-06T05:04:41.467Z,9.10
2023-05-06T05:07:11.458Z,9.00
2023-05-06T05:09:40.001Z,9.10
2023-05-06T05:12:08.876Z,9.10
2023-05-06T05:14:37.434Z,9.10
2023-05-06T05:17:05.959Z,9.10
2023-05-06T05:19:34.506Z,9.10
2023-05-06T05:22:02.986Z,9.10
2023-05-06T05:24:32.871Z,9.10
2023-05-06T05:27:02.370Z,9.20
2023-05-06T05:29:31.028Z,9.20
2023-05-06T05:31:59.515Z,9.20
2023-05-06T05:34:28.027Z,9.20
2023-05-06T05:36:56.888Z,9.20
2023-05-06T05:39:25.406Z,9.20
2023-05-06T05:41:55.595Z,9.20
2023-05-06T05:44:24.032Z,9.20
2023-05-06T05:46:52.623Z,9.20
2023-05-06T05:49:21.324Z,9.20
2023-05-06T05:51:49.846Z,9.20
2023-05-06T05:54:18.303Z,9.20
2023-05-06T05:56:46.783Z,9.20
2023-05-06T05:59:16.678Z,9.20
2023-05-06T06:01:45.245Z,9.30
2023-05-06T06:04:13.830Z,9.40
2023-05-06T06:06:42.334Z,9.40
2023-05-06T06:09:11.382Z,9.40
2023-05-06T06:11:40.012Z,9.40
2023-05-06T06:14:08.463Z,9.40
2023-05-06T06:16:39.798Z,9.40
2023-05-06T06:19:08.395Z,9.40
2023-05-06T06:21:37.341Z,9.40
2023-05-06T06:24:06.712Z,9.40
2023-05-06T06:26:35.297Z,9.40
2023-05-06T06:29:04.167Z,9.50
2023-05-06T06:31:34.153Z,9.50
2023-05-06T06:34:06.612Z,9.50
2023-05-06T06:36:35.113Z,9.50
2023-05-06T06:39:03.854Z,9.50
2023-05-06T06:41:32.340Z,9.50
2023-05-06T06:44:01.072Z,9.50
2023-05-06T06:46:29.530Z,9.60
2023-05-06T06:48:58.114Z,9.60
2023-05-06T06:51:28.074Z,9.70
2023-05-06T06:53:56.605Z,9.70
2023-05-06T06:56:25.062Z,9.70
2023-05-06T06:58:53.679Z,9.70
2023-05-06T07:01:22.248Z,9.70
2023-05-06T07:03:50.813Z,9.70
2023-05-06T07:06:19.397Z,9.70
2023-05-06T07:08:49.306Z,9.70
2023-05-06T07:11:17.846Z,9.80
2023-05-06T07:13:46.365Z,9.80
2023-05-06T07:16:15.004Z,9.80
2023-05-06T07:18:43.506Z,9.80
2023-05-06T07:21:12.114Z,9.80
2023-05-06T07:23:40.552Z,9.90
2023-05-06T07:26:10.806Z,9.90
2023-05-06T07:28:39.592Z,9.90
2023-05-06T07:31:08.149Z,9.90
2023-05-06T07:33:37.106Z,9.80
2023-05-06T07:36:06.365Z,9.80
2023-05-06T07:38:34.882Z,9.70
2023-05-06T07:41:03.331Z,9.80
2023-05-06T07:43:33.246Z,9.80
2023-05-06T07:46:03.523Z,9.80
2023-05-06T07:48:32.781Z,9.80
2023-05-06T07:51:02.383Z,9.90
2023-05-06T07:53:30.869Z,9.90
2023-05-06T07:56:02.390Z,10.00
2023-05-06T07:58:33.042Z,10.00
2023-05-06T08:01:01.545Z,10.00
2023-05-06T08:03:31.768Z,10.10
2023-05-06T08:06:00.856Z,10.10
2023-05-06T08:08:29.469Z,10.10
2023-05-06T08:10:58.936Z,10.20
2023-05-06T08:13:28.302Z,10.20
2023-05-06T08:15:58.235Z,10.30
2023-05-06T08:18:26.804Z,10.40
2023-05-06T08:20:55.412Z,10.50
2023-05-06T08:23:24.016Z,10.60
2023-05-06T08:25:52.472Z,10.60
2023-05-06T08:28:22.132Z,10.60
2023-05-06T08:30:52.504Z,10.60
2023-05-06T08:33:22.594Z,10.50
2023-05-06T08:35:51.114Z,10.50
2023-05-06T08:38:19.716Z,10.60
2023-05-06T08:41:01.196Z,10.60
2023-05-06T08:43:40.240Z,10.60
2023-05-06T08:46:20.088Z,10.70
2023-05-06T08:49:00.265Z,10.70
2023-05-06T08:51:31.997Z,10.70
2023-05-06T08:54:03.661Z,10.80
2023-05-06T08:56:35.675Z,10.80
2023-05-06T08:59:04.282Z,10.90
2023-05-06T09:01:33.003Z,11.00
2023-05-06T09:04:05.555Z,11.10
2023-05-06T09:06:41.796Z,11.10
2023-05-06T09:12:15.124Z,11.10
2023-05-06T09:14:44.339Z,11.10
2023-05-06T09:17:26.676Z,11.00
2023-05-06T09:19:58.265Z,11.10
2023-05-06T09:22:28.584Z,11.20
2023-05-06T09:24:58.132Z,11.40
2023-05-06T09:27:29.154Z,11.50
2023-05-06T09:30:02.832Z,11.60
2023-05-06T09:32:39.260Z,11.50
2023-05-06T09:35:11.845Z,11.40
2023-05-06T09:37:43.031Z,11.30
2023-05-06T09:40:12.330Z,11.30
2023-05-06T09:42:40.880Z,11.40
2023-05-06T09:45:12.021Z,11.50
2023-05-06T09:47:40.982Z,11.50
2023-05-06T09:50:11.966Z,11.40
2023-05-06T09:52:40.540Z,11.40
2023-05-06T09:55:10.194Z,11.50
2023-05-06T09:57:39.534Z,11.70
2023-05-06T10:00:13.088Z,11.70
2023-05-06T10:02:42.659Z,11.80
2023-05-06T10:05:14.534Z,11.80
2023-05-06T10:07:43.382Z,11.80
2023-05-06T10:10:13.661Z,11.80
2023-05-06T10:12:42.408Z,11.80
2023-05-06T10:15:11.766Z,12.00
2023-05-06T10:17:43.093Z,12.10
2023-05-06T10:20:16.196Z,12.20
2023-05-06T10:22:53.748Z,12.20
2023-05-06T10:25:31.414Z,12.20
2023-05-06T10:28:01.569Z,12.40
2023-05-06T10:30:34.094Z,12.60
2023-05-06T10:33:06.867Z,12.70
2023-05-06T10:35:46.336Z,12.90
2023-05-06T10:38:19.444Z,12.90
2023-05-06T10:40:52.967Z,13.00
2023-05-06T10:43:25.527Z,13.00
2023-05-06T10:46:09.186Z,13.00
2023-05-06T10:48:39.613Z,13.00
2023-05-06T10:51:28.534Z,13.00
2023-05-06T10:54:07.185Z,13.00
2023-05-06T10:56:37.637Z,12.90
2023-05-06T10:59:11.516Z,13.00
2023-05-06T11:01:42.094Z,13.00
2023-05-06T11:04:11.894Z,13.00
2023-05-06T11:06:43.522Z,12.90
2023-05-06T11:09:19.173Z,12.90
2023-05-06T11:12:02.015Z,13.00
2023-05-06T11:14:31.428Z,13.00
2023-05-06T11:17:01.642Z,13.00
2023-05-06T11:19:31.777Z,12.90
2023-05-06T11:22:03.883Z,12.80
2023-05-06T11:24:39.499Z,12.70
2023-05-06T11:27:09.450Z,12.60
2023-05-06T11:29:38.934Z,12.50
2023-05-06T11:32:19.056Z,12.50
2023-05-06T11:34:47.623Z,12.60
2023-05-06T11:37:27.221Z,12.60
2023-05-06T11:39:55.885Z,12.60
2023-05-06T11:42:28.502Z,12.70
2023-05-06T11:45:01.498Z,12.70
2023-05-06T11:47:29.784Z,12.70
2023-05-06T11:49:59.139Z,12.60
2023-05-06T11:52:31.425Z,12.50
2023-05-06T11:54:59.927Z,12.50
2023-05-06T11:57:28.471Z,12.40
2023-05-06T11:59:57.040Z,12.40
2023-05-06T12:02:25.553Z,12.30
2023-05-06T12:05:06.939Z,12.30
2023-05-06T12:07:49.015Z,12.30
2023-05-06T12:10:27.118Z,12.40
2023-05-06T12:13:04.502Z,12.50
2023-05-06T12:15:42.155Z,12.40
2023-05-06T12:18:12.290Z,12.60
2023-05-06T12:20:41.163Z,12.70
2023-05-06T12:23:12.579Z,12.70
2023-05-06T12:25:42.227Z,12.80
2023-05-06T12:28:17.154Z,12.90
2023-05-06T12:30:46.273Z,13.00
2023-05-06T12:33:15.052Z,13.30
2023-05-06T12:35:43.557Z,13.50
2023-05-06T12:38:15.201Z,13.60
2023-05-06T12:40:44.955Z,13.60
2023-05-06T12:43:13.962Z,13.70
2023-05-06T12:45:42.541Z,13.90
2023-05-06T12:48:17.886Z,13.90
2023-05-06T12:50:48.123Z,13.90
2023-05-06T12:53:32.686Z,13.90
2023-05-06T12:56:01.234Z,13.80
2023-05-06T12:58:29.786Z,13.80
2023-05-06T13:00:58.412Z,13.60
2023-05-06T13:03:27.137Z,13.50
2023-05-06T13:05:55.866Z,13.40
2023-05-06T13:08:25.880Z,13.30
2023-05-06T13:10:54.606Z,13.10
2023-05-06T13:13:23.196Z,13.10
2023-05-06T13:15:53.948Z,13.10
2023-05-06T13:18:22.538Z,13.20
2023-05-06T13:20:51.915Z,13.20
2023-05-06T13:23:20.804Z,13.20
2023-05-06T13:26:03.359Z,13.30
2023-05-06T13:28:37.487Z,13.30
2023-05-06T13:31:06.386Z,13.10
2023-05-06T13:33:36.254Z,13.00
2023-05-06T13:36:05.505Z,13.00
2023-05-06T13:38:34.559Z,12.90
2023-05-06T13:41:04.484Z,12.70
2023-05-06T13:43:32.986Z,12.60
2023-05-06T13:46:01.573Z,12.60
2023-05-06T13:48:30.106Z,12.70
2023-05-06T13:50:58.886Z,12.70
2023-05-06T13:53:27.397Z,12.60
2023-05-06T13:55:55.987Z,12.70
2023-05-06T13:58:26.193Z,12.60
2023-05-06T14:00:54.712Z,12.60
2023-05-06T14:03:23.266Z,12.60
2023-05-06T14:05:51.902Z,12.50
2023-05-06T14:08:20.494Z,12.50
2023-05-06T14:10:49.366Z,12.40
2023-05-06T14:13:17.977Z,12.40
2023-05-06T14:15:48.105Z,12.30
2023-05-06T14:18:16.653Z,12.20
2023-05-06T14:20:45.095Z,12.10
2023-05-06T14:23:13.733Z,12.00
2023-05-06T14:25:42.296Z,12.00
2023-05-06T14:28:11.008Z,12.00
2023-05-06T14:30:39.737Z,11.90
2023-05-06T14:33:10.426Z,11.90
2023-05-06T14:35:42.261Z,11.90
2023-05-06T14:38:10.864Z,11.80
2023-05-06T14:40:39.583Z,11.80
2023-05-06T14:43:09.201Z,11.70
2023-05-06T14:45:37.935Z,11.70
2023-05-06T14:48:08.458Z,11.80
2023-05-06T14:50:37.787Z,12.00
2023-05-06T14:53:06.398Z,12.10
2023-05-06T14:55:34.893Z,12.10
2023-05-06T14:58:03.818Z,12.10
2023-05-06T15:00:32.485Z,12.00
2023-05-06T15:03:01.287Z,11.90
2023-05-06T15:05:31.615Z,11.90
2023-05-06T15:08:00.275Z,11.80
2023-05-06T15:10:28.882Z,11.70
2023-05-06T15:12:57.518Z,11.70
2023-05-06T15:15:26.102Z,11.70
2023-05-06T15:17:54.615Z,11.60
2023-05-06T15:20:23.402Z,11.60
2023-05-06T15:22:53.405Z,11.60
2023-05-06T15:25:34.474Z,11.60
2023-05-06T15:28:04.294Z,11.70
2023-05-06T15:30:32.793Z,11.70
2023-05-06T15:33:02.807Z,11.70
2023-05-06T15:35:32.500Z,11.80
2023-05-06T15:38:04.726Z,11.70
2023-05-06T15:40:33.382Z,11.80
2023-05-06T15:43:01.947Z,11.80
2023-05-06T15:45:30.497Z,11.70
2023-05-06T15:47:59.070Z,11.60
2023-05-06T15:50:33.451Z,11.50
2023-05-06T15:53:04.427Z,11.50
2023-05-06T15:55:41.645Z,11.50
2023-05-06T15:58:13.818Z,11.50
2023-05-06T16:00:42.433Z,11.50
2023-05-06T16:03:12.498Z,11.50
2023-05-06T16:05:41.515Z,11.40
2023-05-06T16:08:11.554Z,11.50
2023-05-06T16:10:40.056Z,11.60
2023-05-06T16:13:08.667Z,11.60
2023-05-06T16:15:37.677Z,11.50
2023-05-06T16:18:06.496Z,11.50
2023-05-06T16:20:35.128Z,11.50
2023-05-06T16:23:04.068Z,11.60
2023-05-06T16:25:34.076Z,11.60
2023-05-06T16:28:02.720Z,11.50
2023-05-06T16:30:31.253Z,11.50
2023-05-06T16:32:59.903Z,11.60
2023-05-06T16:35:28.488Z,11.60
2023-05-06T16:37:57.127Z,11.70
2023-05-06T16:40:25.909Z,11.70
2023-05-06T16:42:55.866Z,11.70
2023-05-06T16:45:24.555Z,11.80
2023-05-06T16:47:53.174Z,11.70
2023-05-06T16:50:21.820Z,11.70
2023-05-06T16:52:50.365Z,11.70
2023-05-06T16:55:19.429Z,11.60
2023-05-06T16:57:47.941Z,11.60
2023-05-06T17:00:18.878Z,11.40
2023-05-06T17:02:47.508Z,11.30
2023-05-06T17:05:16.359Z,11.20
2023-05-06T17:07:44.805Z,11.10
2023-05-06T17:10:13.579Z,11.10
2023-05-06T17:12:43.047Z,11.10
2023-05-06T17:15:12.594Z,11.00
2023-05-06T17:17:42.854Z,11.00
2023-05-06T17:20:12.186Z,11.00
2023-05-06T17:22:41.103Z,11.00
2023-05-06T17:25:10.809Z,11.00
2023-05-06T17:27:39.666Z,11.00
2023-05-06T17:30:11.885Z,11.00
2023-05-06T17:32:45.654Z,10.90
2023-05-06T17:35:14.476Z,10.90
2023-05-06T17:37:43.607Z,11.00
2023-05-06T17:40:13.206Z,11.00
2023-05-06T17:42:42.372Z,10.90
2023-05-06T17:45:12.090Z,10.90
2023-05-06T17:47:46.967Z,10.90
2023-05-06T17:50:16.173Z,11.00
2023-05-06T17:52:46.610Z,11.00
2023-05-06T17:55:17.370Z,11.00
2023-05-06T17:57:46.994Z,11.00
2023-05-06T18:00:17.872Z,11.00
2023-05-06T18:02:48.981Z,11.00
2023-05-06T18:05:19.797Z,11.00
2023-05-06T18:07:48.573Z,11.00
2023-05-06T18:10:17.593Z,10.90
2023-05-06T18:12:46.476Z,10.90
2023-05-06T18:15:15.554Z,10.90
2023-05-06T18:17:44.442Z,10.90
2023-05-06T18:20:15.655Z,10.90
2023-05-06T18:22:44.151Z,10.80
2023-05-06T18:25:13.203Z,10.80
2023-05-06T18:27:42.684Z,10.80
2023-05-06T18:30:11.729Z,10.80
2023-05-06T18:32:40.608Z,10.70
2023-05-06T18:35:11.178Z,10.80
2023-05-06T18:37:41.626Z,10.70
2023-05-06T18:40:11.165Z,10.70
2023-05-06T18:42:40.403Z,10.70
2023-05-06T18:45:11.879Z,10.70
2023-05-06T18:47:40.731Z,10.70
2023-05-06T18:50:10.424Z,10.70
2023-05-06T18:52:40.915Z,10.60
2023-05-06T18:55:10.391Z,10.60
2023-05-06T18:57:39.806Z,10.60
2023-05-06T19:00:11.235Z,10.50
2023-05-06T19:02:39.913Z,10.50
2023-05-06T19:05:09.898Z,10.50
2023-05-06T19:07:40.655Z,10.50
2023-05-06T19:10:10.211Z,10.50
2023-05-06T19:12:39.851Z,10.50
2023-05-06T19:15:09.891Z,10.40
2023-05-06T19:17:40.825Z,10.40
2023-05-06T19:20:10.871Z,10.40
2023-05-06T19:22:42.038Z,10.40
2023-05-06T19:25:11.567Z,10.40
2023-05-06T19:27:41.022Z,10.40
2023-05-06T19:30:11.547Z,10.40
2023-05-06T19:32:40.819Z,10.40
2023-05-06T19:35:10.332Z,10.40
2023-05-06T19:37:41.619Z,10.30
2023-05-06T19:40:11.793Z,10.40
2023-05-06T19:42:40.815Z,10.30
2023-05-06T19:45:11.025Z,10.30
2023-05-06T19:47:40.268Z,10.30
2023-05-06T19:50:10.538Z,10.30
2023-05-06T19:52:41.550Z,10.30
2023-05-06T19:55:11.329Z,10.20
2023-05-06T19:57:40.662Z,10.20
2023-05-06T20:00:12.127Z,10.30
2023-05-06T20:02:41.736Z,10.20
2023-05-06T20:05:12.620Z,10.20
2023-05-06T20:07:43.688Z,10.30
2023-05-06T20:10:13.812Z,10.30
2023-05-06T20:12:42.895Z,10.20
2023-05-06T20:15:12.481Z,10.20
2023-05-06T20:17:41.496Z,10.20
2023-05-06T20:20:11.959Z,10.20
2023-05-06T20:22:42.882Z,10.20
2023-05-06T20:25:14.563Z,10.20
2023-05-06T20:27:43.532Z,10.20
2023-05-06T20:30:12.920Z,10.20
2023-05-06T20:32:41.746Z,10.20
2023-05-06T20:35:12.629Z,10.30
2023-05-06T20:37:42.980Z,10.20
2023-05-06T20:40:12.780Z,10.20
2023-05-06T20:42:41.548Z,10.20
2023-05-06T20:45:11.186Z,10.20
2023-05-06T20:47:40.150Z,10.20
2023-05-06T20:50:09.435Z,10.20
2023-05-06T20:52:38.010Z,10.20
2023-05-06T20:55:09.310Z,10.20
2023-05-06T20:57:43.590Z,10.20
2023-05-06T21:00:12.992Z,10.20
2023-05-06T21:02:42.287Z,10.20
2023-05-06T21:05:11.730Z,10.20
2023-05-06T21:07:40.780Z,10.20
2023-05-06T21:10:12.031Z,10.20
2023-05-06T21:12:40.646Z,10.10
2023-05-06T21:15:10.454Z,10.20
2023-05-06T21:17:39.684Z,10.20
2023-05-06T21:20:09.445Z,10.20
2023-05-06T21:22:38.027Z,10.20
2023-05-06T21:25:07.801Z,10.20
2023-05-06T21:27:37.955Z,10.20
2023-05-06T21:30:07.638Z,10.20
2023-05-06T21:32:36.281Z,10.20
2023-05-06T21:35:05.548Z,10.20
2023-05-06T21:37:35.977Z,10.20
2023-05-06T21:40:05.201Z,10.20
2023-05-06T21:42:33.741Z,10.20
2023-05-06T21:45:03.853Z,10.20
2023-05-06T21:47:32.428Z,10.20
2023-05-06T21:50:01.062Z,10.20
2023-05-06T21:52:29.720Z,10.20
2023-05-06T21:54:58.255Z,10.20
2023-05-06T21:57:26.728Z,10.20
2023-05-06T21:59:55.345Z,10.20
2023-05-06T22:02:25.347Z,10.20
2023-05-06T22:04:54.086Z,10.20
2023-05-06T22:07:22.638Z,10.20
2023-05-06T22:09:51.145Z,10.20
2023-05-06T22:12:19.752Z,10.20
2023-05-06T22:14:48.234Z,10.20
2023-05-06T22:17:16.842Z,10.20
2023-05-06T22:19:46.797Z,10.20
2023-05-06T22:22:15.750Z,10.10
2023-05-06T22:24:44.270Z,10.10
2023-05-06T22:27:12.853Z,10.10
2023-05-06T22:29:41.330Z,10.20
2023-05-06T22:32:09.857Z,10.20
2023-05-06T22:34:38.902Z,10.10
2023-05-06T22:37:11.486Z,10.20
2023-05-06T22:39:40.474Z,10.20
2023-05-06T22:42:09.837Z,10.20
2023-05-06T22:44:38.976Z,10.20
2023-05-06T22:47:07.552Z,10.20
2023-05-06T22:49:36.560Z,10.20
2023-05-06T22:52:05.760Z,10.20
2023-05-06T22:54:36.194Z,10.20
2023-05-06T22:57:04.754Z,10.20
2023-05-06T22:59:33.304Z,10.20
2023-05-06T23:02:01.843Z,10.20
2023-05-06T23:04:30.503Z,10.10
2023-05-06T23:06:58.965Z,10.10
2023-05-06T23:09:27.492Z,10.20
2023-05-06T23:11:57.416Z,10.20
2023-05-06T23:14:25.903Z,10.10
2023-05-06T23:16:54.440Z,10.10
2023-05-06T23:19:22.982Z,10.20
2023-05-06T23:21:52.263Z,10.20
2023-05-06T23:24:20.795Z,10.10
2023-05-06T23:26:49.274Z,10.10
2023-05-06T23:29:19.144Z,10.10
2023-05-06T23:31:47.634Z,10.10
2023-05-06T23:34:16.102Z,10.20
2023-05-06T23:36:44.634Z,10.20
2023-05-06T23:39:13.316Z,10.20
2023-05-06T23:41:41.823Z,10.20
2023-05-06T23:44:10.368Z,10.20
2023-05-06T23:46:40.580Z,10.20
2023-05-06T23:49:09.107Z,10.20
2023-05-06T23:51:37.917Z,10.20
2023-05-06T23:54:06.646Z,10.20
2023-05-06T23:56:35.494Z,10.20
2023-05-06T23:59:04.127Z,10.20
